sensor_id;sensor_type;location;lat;lon;timestamp;P1;durP1;ratioP1;P2;durP2;ratioP2
76606;SDS011;65498;50.916;4.698;2023-04-01T00:00:53;4.05;;;0.90;;
76606;SDS011;65498;50.916;4.698;2023-04-01T00:03:21;4.90;;;1.42;;
76606;SDS011;65498;50.916;4.698;2023-04-01T00:05:50;4.60;;;1.10;;
76606;SDS011;65498;50.916;4.698;2023-04-01T00:08:17;3.42;;;1.10;;
76606;SDS011;65498;50.916;4.698;2023-04-01T00:10:45;5.08;;;1.00;;
76606;SDS011;65498;50.916;4.698;2023-04-01T00:13:13;4.53;;;1.00;;
76606;SDS011;65498;50.916;4.698;2023-04-01T00:15:41;6.37;;;1.40;;
76606;SDS011;65498;50.916;4.698;2023-04-01T00:18:09;10.63;;;1.35;;
76606;SDS011;65498;50.916;4.698;2023-04-01T00:20:38;10.55;;;2.40;;
76606;SDS011;65498;50.916;4.698;2023-04-01T00:23:05;14.68;;;1.75;;
76606;SDS011;65498;50.916;4.698;2023-04-01T00:25:33;14.25;;;2.85;;
76606;SDS011;65498;50.916;4.698;2023-04-01T00:28:00;9.43;;;1.95;;
76606;SDS011;65498;50.916;4.698;2023-04-01T00:30:28;6.17;;;1.50;;
76606;SDS011;65498;50.916;4.698;2023-04-01T00:32:56;8.95;;;1.90;;
76606;SDS011;65498;50.916;4.698;2023-04-01T00:35:23;10.98;;;2.45;;
76606;SDS011;65498;50.916;4.698;2023-04-01T00:37:51;9.83;;;2.02;;
76606;SDS011;65498;50.916;4.698;2023-04-01T00:40:26;11.33;;;2.12;;
76606;SDS011;65498;50.916;4.698;2023-04-01T00:42:56;8.53;;;2.10;;
76606;SDS011;65498;50.916;4.698;2023-04-01T00:45:35;7.42;;;1.90;;
76606;SDS011;65498;50.916;4.698;2023-04-01T00:47:58;6.95;;;2.33;;
76606;SDS011;65498;50.916;4.698;2023-04-01T00:50:28;8.95;;;2.27;;
76606;SDS011;65498;50.916;4.698;2023-04-01T00:52:57;8.07;;;2.27;;
76606;SDS011;65498;50.916;4.698;2023-04-01T00:55:27;9.30;;;2.12;;
76606;SDS011;65498;50.916;4.698;2023-04-01T00:57:57;6.83;;;1.62;;
76606;SDS011;65498;50.916;4.698;2023-04-01T01:00:26;8.90;;;1.92;;
76606;SDS011;65498;50.916;4.698;2023-04-01T01:02:54;9.35;;;1.70;;
76606;SDS011;65498;50.916;4.698;2023-04-01T01:05:23;8.50;;;1.72;;
76606;SDS011;65498;50.916;4.698;2023-04-01T01:08:03;8.00;;;1.77;;
76606;SDS011;65498;50.916;4.698;2023-04-01T01:10:32;5.53;;;1.50;;
76606;SDS011;65498;50.916;4.698;2023-04-01T01:15:46;9.23;;;1.77;;
76606;SDS011;65498;50.916;4.698;2023-04-01T01:23:57;6.95;;;1.57;;
76606;SDS011;65498;50.916;4.698;2023-04-01T01:29:34;7.78;;;1.77;;
76606;SDS011;65498;50.916;4.698;2023-04-01T01:32:25;6.33;;;1.80;;
76606;SDS011;65498;50.916;4.698;2023-04-01T01:37:47;5.85;;;1.35;;
76606;SDS011;65498;50.916;4.698;2023-04-01T01:40:18;5.58;;;1.30;;
76606;SDS011;65498;50.916;4.698;2023-04-01T01:42:48;7.13;;;1.53;;
76606;SDS011;65498;50.916;4.698;2023-04-01T01:45:18;4.78;;;1.22;;
76606;SDS011;65498;50.916;4.698;2023-04-01T01:47:48;4.20;;;1.20;;
76606;SDS011;65498;50.916;4.698;2023-04-01T01:50:17;6.40;;;1.55;;
76606;SDS011;65498;50.916;4.698;2023-04-01T01:52:47;4.65;;;1.07;;
76606;SDS011;65498;50.916;4.698;2023-04-01T01:55:23;6.53;;;1.77;;
76606;SDS011;65498;50.916;4.698;2023-04-01T01:57:52;7.45;;;2.33;;
76606;SDS011;65498;50.916;4.698;2023-04-01T02:00:21;5.17;;;1.90;;
76606;SDS011;65498;50.916;4.698;2023-04-01T02:02:49;5.97;;;1.25;;
76606;SDS011;65498;50.916;4.698;2023-04-01T02:05:19;5.47;;;1.40;;
76606;SDS011;65498;50.916;4.698;2023-04-01T02:07:49;5.92;;;1.65;;
76606;SDS011;65498;50.916;4.698;2023-04-01T02:10:23;4.70;;;1.22;;
76606;SDS011;65498;50.916;4.698;2023-04-01T02:12:53;5.20;;;1.20;;
76606;SDS011;65498;50.916;4.698;2023-04-01T02:15:23;4.70;;;1.10;;
76606;SDS011;65498;50.916;4.698;2023-04-01T02:17:55;3.50;;;1.00;;
76606;SDS011;65498;50.916;4.698;2023-04-01T02:20:23;7.70;;;1.65;;
76606;SDS011;65498;50.916;4.698;2023-04-01T02:22:53;4.03;;;1.02;;
76606;SDS011;65498;50.916;4.698;2023-04-01T02:25:25;4.92;;;1.30;;
76606;SDS011;65498;50.916;4.698;2023-04-01T02:27:54;3.67;;;1.00;;
76606;SDS011;65498;50.916;4.698;2023-04-01T02:30:25;4.37;;;1.00;;
76606;SDS011;65498;50.916;4.698;2023-04-01T02:32:56;4.58;;;1.22;;
76606;SDS011;65498;50.916;4.698;2023-04-01T02:35:24;2.97;;;0.77;;
76606;SDS011;65498;50.916;4.698;2023-04-01T02:37:53;3.77;;;0.98;;
76606;SDS011;65498;50.916;4.698;2023-04-01T02:40:21;3.37;;;1.00;;
76606;SDS011;65498;50.916;4.698;2023-04-01T02:42:49;4.83;;;1.15;;
76606;SDS011;65498;50.916;4.698;2023-04-01T02:45:17;4.00;;;1.15;;
76606;SDS011;65498;50.916;4.698;2023-04-01T02:47:44;3.15;;;0.85;;
76606;SDS011;65498;50.916;4.698;2023-04-01T02:50:12;4.97;;;1.10;;
76606;SDS011;65498;50.916;4.698;2023-04-01T02:52:40;5.83;;;1.10;;
76606;SDS011;65498;50.916;4.698;2023-04-01T02:55:07;4.83;;;1.07;;
76606;SDS011;65498;50.916;4.698;2023-04-01T02:57:35;3.92;;;1.00;;
76606;SDS011;65498;50.916;4.698;2023-04-01T03:00:03;4.00;;;1.00;;
76606;SDS011;65498;50.916;4.698;2023-04-01T03:02:33;3.58;;;0.90;;
76606;SDS011;65498;50.916;4.698;2023-04-01T03:05:02;4.00;;;1.10;;
76606;SDS011;65498;50.916;4.698;2023-04-01T03:07:30;4.78;;;1.07;;
76606;SDS011;65498;50.916;4.698;2023-04-01T03:09:57;3.58;;;0.88;;
76606;SDS011;65498;50.916;4.698;2023-04-01T03:12:25;4.12;;;0.90;;
76606;SDS011;65498;50.916;4.698;2023-04-01T03:14:53;2.62;;;0.70;;
76606;SDS011;65498;50.916;4.698;2023-04-01T03:17:20;3.08;;;0.90;;
76606;SDS011;65498;50.916;4.698;2023-04-01T03:19:48;4.10;;;0.90;;
76606;SDS011;65498;50.916;4.698;2023-04-01T03:22:15;2.98;;;0.82;;
76606;SDS011;65498;50.916;4.698;2023-04-01T03:24:44;3.15;;;0.85;;
76606;SDS011;65498;50.916;4.698;2023-04-01T03:27:12;2.62;;;0.80;;
76606;SDS011;65498;50.916;4.698;2023-04-01T03:29:40;3.87;;;1.00;;
76606;SDS011;65498;50.916;4.698;2023-04-01T03:32:08;4.53;;;1.17;;
76606;SDS011;65498;50.916;4.698;2023-04-01T03:34:35;4.12;;;1.02;;
76606;SDS011;65498;50.916;4.698;2023-04-01T03:37:03;3.42;;;0.85;;
76606;SDS011;65498;50.916;4.698;2023-04-01T03:39:31;3.33;;;1.30;;
76606;SDS011;65498;50.916;4.698;2023-04-01T03:41:58;3.30;;;0.70;;
76606;SDS011;65498;50.916;4.698;2023-04-01T03:44:29;2.50;;;0.80;;
76606;SDS011;65498;50.916;4.698;2023-04-01T03:46:58;3.80;;;1.02;;
76606;SDS011;65498;50.916;4.698;2023-04-01T03:49:26;2.62;;;0.57;;
76606;SDS011;65498;50.916;4.698;2023-04-01T03:51:54;3.60;;;0.90;;
76606;SDS011;65498;50.916;4.698;2023-04-01T03:54:21;2.27;;;0.80;;
76606;SDS011;65498;50.916;4.698;2023-04-01T03:56:49;4.83;;;0.88;;
76606;SDS011;65498;50.916;4.698;2023-04-01T03:59:16;3.62;;;0.88;;
76606;SDS011;65498;50.916;4.698;2023-04-01T04:01:45;4.10;;;1.00;;
76606;SDS011;65498;50.916;4.698;2023-04-01T04:06:40;2.90;;;0.85;;
76606;SDS011;65498;50.916;4.698;2023-04-01T04:09:08;3.65;;;1.00;;
76606;SDS011;65498;50.916;4.698;2023-04-01T04:11:36;3.17;;;1.07;;
76606;SDS011;65498;50.916;4.698;2023-04-01T04:14:03;4.15;;;0.93;;
76606;SDS011;65498;50.916;4.698;2023-04-01T04:16:31;4.75;;;1.02;;
76606;SDS011;65498;50.916;4.698;2023-04-01T04:18:58;2.77;;;0.85;;
76606;SDS011;65498;50.916;4.698;2023-04-01T04:21:26;3.77;;;1.00;;
76606;SDS011;65498;50.916;4.698;2023-04-01T04:23:53;4.40;;;1.27;;
76606;SDS011;65498;50.916;4.698;2023-04-01T04:26:21;3.27;;;1.02;;
76606;SDS011;65498;50.916;4.698;2023-04-01T04:28:48;5.20;;;1.00;;
76606;SDS011;65498;50.916;4.698;2023-04-01T04:31:19;4.62;;;1.70;;
76606;SDS011;65498;50.916;4.698;2023-04-01T04:33:48;4.50;;;2.00;;
76606;SDS011;65498;50.916;4.698;2023-04-01T04:36:17;5.78;;;1.20;;
76606;SDS011;65498;50.916;4.698;2023-04-01T04:38:45;2.35;;;0.80;;
76606;SDS011;65498;50.916;4.698;2023-04-01T04:41:14;3.75;;;0.80;;
76606;SDS011;65498;50.916;4.698;2023-04-01T04:43:48;2.60;;;0.90;;
76606;SDS011;65498;50.916;4.698;2023-04-01T04:46:19;6.33;;;1.60;;
76606;SDS011;65498;50.916;4.698;2023-04-01T04:48:47;3.15;;;0.90;;
76606;SDS011;65498;50.916;4.698;2023-04-01T04:51:15;3.90;;;1.25;;
76606;SDS011;65498;50.916;4.698;2023-04-01T04:53:44;3.95;;;1.10;;
76606;SDS011;65498;50.916;4.698;2023-04-01T04:56:12;3.33;;;1.00;;
76606;SDS011;65498;50.916;4.698;2023-04-01T04:58:41;3.75;;;1.10;;
76606;SDS011;65498;50.916;4.698;2023-04-01T05:01:09;3.75;;;1.10;;
76606;SDS011;65498;50.916;4.698;2023-04-01T05:03:39;2.98;;;1.10;;
76606;SDS011;65498;50.916;4.698;2023-04-01T05:06:08;4.28;;;1.02;;
76606;SDS011;65498;50.916;4.698;2023-04-01T05:08:36;3.17;;;1.00;;
76606;SDS011;65498;50.916;4.698;2023-04-01T05:11:06;3.58;;;1.12;;
76606;SDS011;65498;50.916;4.698;2023-04-01T05:13:37;3.45;;;1.07;;
76606;SDS011;65498;50.916;4.698;2023-04-01T05:16:07;3.37;;;1.00;;
76606;SDS011;65498;50.916;4.698;2023-04-01T05:18:37;3.65;;;0.90;;
76606;SDS011;65498;50.916;4.698;2023-04-01T05:21:06;3.90;;;1.27;;
76606;SDS011;65498;50.916;4.698;2023-04-01T05:23:35;4.42;;;1.20;;
76606;SDS011;65498;50.916;4.698;2023-04-01T05:26:04;3.67;;;1.02;;
76606;SDS011;65498;50.916;4.698;2023-04-01T05:31:00;3.70;;;0.80;;
76606;SDS011;65498;50.916;4.698;2023-04-01T05:33:29;1.93;;;0.80;;
76606;SDS011;65498;50.916;4.698;2023-04-01T05:36:05;3.55;;;0.80;;
76606;SDS011;65498;50.916;4.698;2023-04-01T05:38:33;3.30;;;0.80;;
76606;SDS011;65498;50.916;4.698;2023-04-01T05:41:01;2.52;;;0.78;;
76606;SDS011;65498;50.916;4.698;2023-04-01T05:43:29;3.60;;;0.80;;
76606;SDS011;65498;50.916;4.698;2023-04-01T05:45:57;3.00;;;0.93;;
76606;SDS011;65498;50.916;4.698;2023-04-01T05:48:24;2.47;;;0.72;;
76606;SDS011;65498;50.916;4.698;2023-04-01T05:50:52;2.45;;;0.70;;
76606;SDS011;65498;50.916;4.698;2023-04-01T05:53:19;2.77;;;0.90;;
76606;SDS011;65498;50.916;4.698;2023-04-01T05:55:47;2.27;;;0.75;;
76606;SDS011;65498;50.916;4.698;2023-04-01T05:58:15;2.65;;;0.78;;
76606;SDS011;65498;50.916;4.698;2023-04-01T06:00:43;2.70;;;0.68;;
76606;SDS011;65498;50.916;4.698;2023-04-01T06:03:10;3.15;;;0.75;;
76606;SDS011;65498;50.916;4.698;2023-04-01T06:05:43;2.60;;;0.70;;
76606;SDS011;65498;50.916;4.698;2023-04-01T06:08:13;2.50;;;0.85;;
76606;SDS011;65498;50.916;4.698;2023-04-01T06:10:49;3.85;;;0.88;;
76606;SDS011;65498;50.916;4.698;2023-04-01T06:13:38;3.05;;;0.55;;
76606;SDS011;65498;50.916;4.698;2023-04-01T06:21:34;1.98;;;0.55;;
76606;SDS011;65498;50.916;4.698;2023-04-01T06:37:22;4.97;;;0.85;;
76606;SDS011;65498;50.916;4.698;2023-04-01T06:39:58;2.80;;;0.80;;
76606;SDS011;65498;50.916;4.698;2023-04-01T06:45:11;1.65;;;0.70;;
76606;SDS011;65498;50.916;4.698;2023-04-01T06:50:25;1.45;;;0.62;;
76606;SDS011;65498;50.916;4.698;2023-04-01T06:53:10;1.85;;;0.88;;
76606;SDS011;65498;50.916;4.698;2023-04-01T06:58:21;2.80;;;0.80;;
76606;SDS011;65498;50.916;4.698;2023-04-01T07:03:30;1.77;;;0.60;;
76606;SDS011;65498;50.916;4.698;2023-04-01T07:06:03;2.20;;;0.70;;
76606;SDS011;65498;50.916;4.698;2023-04-01T07:08:34;2.72;;;0.72;;
76606;SDS011;65498;50.916;4.698;2023-04-01T07:11:04;1.57;;;0.75;;
76606;SDS011;65498;50.916;4.698;2023-04-01T07:13:54;3.30;;;0.80;;
76606;SDS011;65498;50.916;4.698;2023-04-01T07:17:07;1.25;;;0.50;;
76606;SDS011;65498;50.916;4.698;2023-04-01T07:19:03;2.05;;;0.70;;
76606;SDS011;65498;50.916;4.698;2023-04-01T07:21:54;2.40;;;0.60;;
76606;SDS011;65498;50.916;4.698;2023-04-01T07:24:35;2.05;;;0.62;;
76606;SDS011;65498;50.916;4.698;2023-04-01T07:27:05;1.30;;;0.60;;
76606;SDS011;65498;50.916;4.698;2023-04-01T07:29:37;1.85;;;0.78;;
76606;SDS011;65498;50.916;4.698;2023-04-01T07:32:16;2.90;;;0.70;;
76606;SDS011;65498;50.916;4.698;2023-04-01T07:34:47;1.87;;;0.70;;
76606;SDS011;65498;50.916;4.698;2023-04-01T07:37:29;3.15;;;0.80;;
76606;SDS011;65498;50.916;4.698;2023-04-01T07:49:17;3.20;;;0.70;;
76606;SDS011;65498;50.916;4.698;2023-04-01T07:51:17;1.00;;;0.50;;
76606;SDS011;65498;50.916;4.698;2023-04-01T07:56:48;2.20;;;0.65;;
76606;SDS011;65498;50.916;4.698;2023-04-01T07:59:35;1.25;;;0.50;;
76606;SDS011;65498;50.916;4.698;2023-04-01T08:05:19;0.82;;;0.30;;
76606;SDS011;65498;50.916;4.698;2023-04-01T08:07:59;1.22;;;0.40;;
76606;SDS011;65498;50.916;4.698;2023-04-01T08:10:51;1.25;;;0.53;;
76606;SDS011;65498;50.916;4.698;2023-04-01T08:13:24;0.75;;;0.25;;
76606;SDS011;65498;50.916;4.698;2023-04-01T08:21:49;2.65;;;0.40;;
76606;SDS011;65498;50.916;4.698;2023-04-01T08:26:59;3.17;;;0.75;;
76606;SDS011;65498;50.916;4.698;2023-04-01T08:32:06;1.05;;;0.30;;
76606;SDS011;65498;50.916;4.698;2023-04-01T08:34:39;0.42;;;0.40;;
76606;SDS011;65498;50.916;4.698;2023-04-01T08:37:14;1.50;;;0.50;;
76606;SDS011;65498;50.916;4.698;2023-04-01T08:39:56;1.52;;;0.50;;
76606;SDS011;65498;50.916;4.698;2023-04-01T08:48:14;1.52;;;0.70;;
76606;SDS011;65498;50.916;4.698;2023-04-01T08:51:11;0.85;;;0.30;;
76606;SDS011;65498;50.916;4.698;2023-04-01T08:59:40;3.02;;;0.60;;
76606;SDS011;65498;50.916;4.698;2023-04-01T09:02:46;1.17;;;0.50;;
76606;SDS011;65498;50.916;4.698;2023-04-01T09:10:34;1.27;;;0.30;;
76606;SDS011;65498;50.916;4.698;2023-04-01T09:21:35;1.72;;;0.37;;
76606;SDS011;65498;50.916;4.698;2023-04-01T09:24:13;1.40;;;0.45;;
76606;SDS011;65498;50.916;4.698;2023-04-01T09:29:46;1.25;;;0.40;;
76606;SDS011;65498;50.916;4.698;2023-04-01T09:32:33;2.30;;;0.40;;
76606;SDS011;65498;50.916;4.698;2023-04-01T09:48:40;2.05;;;0.40;;
76606;SDS011;65498;50.916;4.698;2023-04-01T09:54:04;2.85;;;0.57;;
76606;SDS011;65498;50.916;4.698;2023-04-01T10:05:44;3.52;;;0.62;;
76606;SDS011;65498;50.916;4.698;2023-04-01T10:08:29;1.98;;;0.60;;
76606;SDS011;65498;50.916;4.698;2023-04-01T10:11:02;0.98;;;0.30;;
76606;SDS011;65498;50.916;4.698;2023-04-01T10:16:27;2.47;;;0.50;;
76606;SDS011;65498;50.916;4.698;2023-04-01T10:18:59;2.55;;;0.53;;
76606;SDS011;65498;50.916;4.698;2023-04-01T10:21:37;1.37;;;0.50;;
76606;SDS011;65498;50.916;4.698;2023-04-01T10:24:15;1.75;;;0.60;;
76606;SDS011;65498;50.916;4.698;2023-04-01T10:41:09;1.80;;;0.53;;
76606;SDS011;65498;50.916;4.698;2023-04-01T10:44:09;0.98;;;0.50;;
76606;SDS011;65498;50.916;4.698;2023-04-01T10:52:22;1.22;;;0.45;;
76606;SDS011;65498;50.916;4.698;2023-04-01T10:57:41;3.05;;;0.70;;
76606;SDS011;65498;50.916;4.698;2023-04-01T11:03:27;3.58;;;0.50;;
76606;SDS011;65498;50.916;4.698;2023-04-01T11:34:16;1.67;;;0.55;;
76606;SDS011;65498;50.916;4.698;2023-04-01T11:36:50;1.72;;;0.82;;
76606;SDS011;65498;50.916;4.698;2023-04-01T11:47:58;2.83;;;0.53;;
76606;SDS011;65498;50.916;4.698;2023-04-01T12:02:09;5.65;;;1.10;;
76606;SDS011;65498;50.916;4.698;2023-04-01T12:07:29;10.38;;;1.85;;
76606;SDS011;65498;50.916;4.698;2023-04-01T12:10:12;7.87;;;2.62;;
76606;SDS011;65498;50.916;4.698;2023-04-01T12:12:54;6.95;;;1.87;;
76606;SDS011;65498;50.916;4.698;2023-04-01T12:15:50;5.45;;;1.45;;
76606;SDS011;65498;50.916;4.698;2023-04-01T12:18:38;5.47;;;1.50;;
76606;SDS011;65498;50.916;4.698;2023-04-01T12:21:16;6.05;;;1.57;;
76606;SDS011;65498;50.916;4.698;2023-04-01T12:29:28;5.22;;;1.30;;
76606;SDS011;65498;50.916;4.698;2023-04-01T12:37:49;4.20;;;1.20;;
76606;SDS011;65498;50.916;4.698;2023-04-01T12:43:02;2.33;;;0.93;;
76606;SDS011;65498;50.916;4.698;2023-04-01T12:48:35;3.37;;;0.90;;
76606;SDS011;65498;50.916;4.698;2023-04-01T12:52:07;5.55;;;2.35;;
76606;SDS011;65498;50.916;4.698;2023-04-01T12:56:57;4.00;;;0.80;;
76606;SDS011;65498;50.916;4.698;2023-04-01T13:04:41;3.62;;;0.80;;
76606;SDS011;65498;50.916;4.698;2023-04-01T13:07:21;2.47;;;0.88;;
76606;SDS011;65498;50.916;4.698;2023-04-01T13:15:20;1.92;;;0.80;;
76606;SDS011;65498;50.916;4.698;2023-04-01T13:17:50;2.52;;;0.88;;
76606;SDS011;65498;50.916;4.698;2023-04-01T13:20:23;2.87;;;0.90;;
76606;SDS011;65498;50.916;4.698;2023-04-01T13:25:49;2.60;;;0.72;;
76606;SDS011;65498;50.916;4.698;2023-04-01T13:28:30;2.02;;;0.70;;
76606;SDS011;65498;50.916;4.698;2023-04-01T13:34:04;1.40;;;0.53;;
76606;SDS011;65498;50.916;4.698;2023-04-01T13:36:55;2.17;;;0.60;;
76606;SDS011;65498;50.916;4.698;2023-04-01T13:39:34;1.77;;;0.50;;
76606;SDS011;65498;50.916;4.698;2023-04-01T13:42:23;1.52;;;0.47;;
76606;SDS011;65498;50.916;4.698;2023-04-01T13:44:55;1.42;;;0.60;;
76606;SDS011;65498;50.916;4.698;2023-04-01T13:47:56;4.62;;;1.07;;
76606;SDS011;65498;50.916;4.698;2023-04-01T13:50:45;3.05;;;0.70;;
76606;SDS011;65498;50.916;4.698;2023-04-01T13:56:50;2.83;;;0.93;;
76606;SDS011;65498;50.916;4.698;2023-04-01T14:05:24;1.37;;;0.50;;
76606;SDS011;65498;50.916;4.698;2023-04-01T14:10:39;2.20;;;0.70;;
76606;SDS011;65498;50.916;4.698;2023-04-01T14:24:13;1.07;;;0.53;;
76606;SDS011;65498;50.916;4.698;2023-04-01T14:35:27;1.40;;;0.50;;
76606;SDS011;65498;50.916;4.698;2023-04-01T14:43:52;4.65;;;0.60;;
76606;SDS011;65498;50.916;4.698;2023-04-01T14:49:34;1.30;;;0.50;;
76606;SDS011;65498;50.916;4.698;2023-04-01T14:52:09;1.98;;;0.62;;
76606;SDS011;65498;50.916;4.698;2023-04-01T14:54:53;3.05;;;0.70;;
76606;SDS011;65498;50.916;4.698;2023-04-01T14:57:30;1.55;;;0.60;;
76606;SDS011;65498;50.916;4.698;2023-04-01T15:02:38;2.95;;;0.82;;
76606;SDS011;65498;50.916;4.698;2023-04-01T15:07:55;2.40;;;0.93;;
76606;SDS011;65498;50.916;4.698;2023-04-01T15:13:23;3.05;;;0.90;;
76606;SDS011;65498;50.916;4.698;2023-04-01T15:23:51;3.08;;;1.25;;
76606;SDS011;65498;50.916;4.698;2023-04-01T15:26:25;3.22;;;1.20;;
76606;SDS011;65498;50.916;4.698;2023-04-01T15:34:32;2.47;;;0.62;;
76606;SDS011;65498;50.916;4.698;2023-04-01T15:48:39;3.67;;;0.75;;
76606;SDS011;65498;50.916;4.698;2023-04-01T15:54:23;2.02;;;0.70;;
76606;SDS011;65498;50.916;4.698;2023-04-01T15:57:08;1.50;;;0.80;;
76606;SDS011;65498;50.916;4.698;2023-04-01T16:00:00;1.27;;;0.70;;
76606;SDS011;65498;50.916;4.698;2023-04-01T16:02:33;2.40;;;0.75;;
76606;SDS011;65498;50.916;4.698;2023-04-01T16:05:21;2.45;;;0.80;;
76606;SDS011;65498;50.916;4.698;2023-04-01T16:21:58;0.98;;;0.40;;
76606;SDS011;65498;50.916;4.698;2023-04-01T16:24:31;3.22;;;0.88;;
76606;SDS011;65498;50.916;4.698;2023-04-01T16:35:57;2.17;;;0.60;;
76606;SDS011;65498;50.916;4.698;2023-04-01T16:41:19;1.32;;;0.70;;
76606;SDS011;65498;50.916;4.698;2023-04-01T16:43:50;1.80;;;0.70;;
76606;SDS011;65498;50.916;4.698;2023-04-01T16:46:28;1.65;;;0.62;;
76606;SDS011;65498;50.916;4.698;2023-04-01T16:57:13;1.67;;;0.72;;
76606;SDS011;65498;50.916;4.698;2023-04-01T17:00:00;1.92;;;0.85;;
76606;SDS011;65498;50.916;4.698;2023-04-01T17:02:33;4.78;;;0.78;;
76606;SDS011;65498;50.916;4.698;2023-04-01T17:05:08;1.27;;;0.60;;
76606;SDS011;65498;50.916;4.698;2023-04-01T17:07:51;2.02;;;0.72;;
76606;SDS011;65498;50.916;4.698;2023-04-01T17:13:05;2.05;;;0.80;;
76606;SDS011;65498;50.916;4.698;2023-04-01T17:15:38;4.20;;;0.80;;
76606;SDS011;65498;50.916;4.698;2023-04-01T17:18:23;2.35;;;0.85;;
76606;SDS011;65498;50.916;4.698;2023-04-01T17:20:59;1.55;;;0.70;;
76606;SDS011;65498;50.916;4.698;2023-04-01T17:23:47;2.98;;;0.70;;
76606;SDS011;65498;50.916;4.698;2023-04-01T17:37:24;2.30;;;0.72;;
76606;SDS011;65498;50.916;4.698;2023-04-01T17:42:42;1.67;;;0.80;;
76606;SDS011;65498;50.916;4.698;2023-04-01T17:53:39;2.65;;;1.00;;
76606;SDS011;65498;50.916;4.698;2023-04-01T17:56:16;2.10;;;0.78;;
76606;SDS011;65498;50.916;4.698;2023-04-01T17:58:45;2.62;;;0.90;;
76606;SDS011;65498;50.916;4.698;2023-04-01T18:15:37;3.02;;;0.80;;
76606;SDS011;65498;50.916;4.698;2023-04-01T18:18:35;2.85;;;0.90;;
76606;SDS011;65498;50.916;4.698;2023-04-01T18:23:51;2.67;;;0.80;;
76606;SDS011;65498;50.916;4.698;2023-04-01T18:26:12;1.77;;;0.70;;
76606;SDS011;65498;50.916;4.698;2023-04-01T18:28:47;3.33;;;0.80;;
76606;SDS011;65498;50.916;4.698;2023-04-01T18:31:32;1.75;;;0.70;;
76606;SDS011;65498;50.916;4.698;2023-04-01T18:34:16;1.75;;;0.80;;
76606;SDS011;65498;50.916;4.698;2023-04-01T18:37:12;2.62;;;0.80;;
76606;SDS011;65498;50.916;4.698;2023-04-01T18:39:42;2.17;;;1.02;;
76606;SDS011;65498;50.916;4.698;2023-04-01T18:47:54;4.05;;;1.30;;
76606;SDS011;65498;50.916;4.698;2023-04-01T18:50:37;3.83;;;0.82;;
76606;SDS011;65498;50.916;4.698;2023-04-01T18:53:22;4.28;;;0.90;;
76606;SDS011;65498;50.916;4.698;2023-04-01T18:55:59;1.25;;;0.72;;
76606;SDS011;65498;50.916;4.698;2023-04-01T19:06:51;2.00;;;0.70;;
76606;SDS011;65498;50.916;4.698;2023-04-01T19:09:24;2.42;;;0.90;;
76606;SDS011;65498;50.916;4.698;2023-04-01T19:11:57;4.70;;;2.05;;
76606;SDS011;65498;50.916;4.698;2023-04-01T19:17:58;3.75;;;1.00;;
76606;SDS011;65498;50.916;4.698;2023-04-01T19:20:27;4.35;;;1.20;;
76606;SDS011;65498;50.916;4.698;2023-04-01T19:25:50;16.07;;;4.20;;
76606;SDS011;65498;50.916;4.698;2023-04-01T19:34:07;23.95;;;6.90;;
76606;SDS011;65498;50.916;4.698;2023-04-01T19:56:07;15.00;;;5.17;;
76606;SDS011;65498;50.916;4.698;2023-04-01T20:01:22;16.82;;;5.15;;
76606;SDS011;65498;50.916;4.698;2023-04-01T20:03:55;13.85;;;4.60;;
76606;SDS011;65498;50.916;4.698;2023-04-01T20:06:31;17.62;;;5.00;;
76606;SDS011;65498;50.916;4.698;2023-04-01T20:14:43;14.18;;;3.75;;
76606;SDS011;65498;50.916;4.698;2023-04-01T20:17:19;13.95;;;4.10;;
76606;SDS011;65498;50.916;4.698;2023-04-01T20:25:15;12.23;;;4.45;;
76606;SDS011;65498;50.916;4.698;2023-04-01T20:27:51;15.55;;;5.03;;
76606;SDS011;65498;50.916;4.698;2023-04-01T20:34:07;15.08;;;4.95;;
76606;SDS011;65498;50.916;4.698;2023-04-01T20:39:40;11.35;;;4.15;;
76606;SDS011;65498;50.916;4.698;2023-04-01T20:48:02;12.03;;;4.28;;
76606;SDS011;65498;50.916;4.698;2023-04-01T20:50:49;8.95;;;3.70;;
76606;SDS011;65498;50.916;4.698;2023-04-01T20:53:34;12.73;;;3.92;;
76606;SDS011;65498;50.916;4.698;2023-04-01T20:58:46;9.95;;;3.80;;
76606;SDS011;65498;50.916;4.698;2023-04-01T21:04:16;13.22;;;4.75;;
76606;SDS011;65498;50.916;4.698;2023-04-01T21:12:22;9.63;;;3.92;;
76606;SDS011;65498;50.916;4.698;2023-04-01T21:23:36;10.20;;;3.50;;
76606;SDS011;65498;50.916;4.698;2023-04-01T21:34:40;8.83;;;3.95;;
76606;SDS011;65498;50.916;4.698;2023-04-01T21:37:22;10.32;;;3.83;;
76606;SDS011;65498;50.916;4.698;2023-04-01T21:39:54;10.00;;;4.10;;
76606;SDS011;65498;50.916;4.698;2023-04-01T21:54:08;10.20;;;4.08;;
76606;SDS011;65498;50.916;4.698;2023-04-01T21:57:00;9.95;;;4.30;;
76606;SDS011;65498;50.916;4.698;2023-04-01T22:02:35;10.18;;;4.83;;
76606;SDS011;65498;50.916;4.698;2023-04-01T22:05:16;9.23;;;4.42;;
76606;SDS011;65498;50.916;4.698;2023-04-01T22:07:47;9.90;;;4.00;;
76606;SDS011;65498;50.916;4.698;2023-04-01T22:13:07;8.23;;;3.62;;
76606;SDS011;65498;50.916;4.698;2023-04-01T22:18:24;7.60;;;4.03;;
76606;SDS011;65498;50.916;4.698;2023-04-01T22:21:04;7.47;;;3.75;;
76606;SDS011;65498;50.916;4.698;2023-04-01T22:23:44;10.28;;;4.00;;
76606;SDS011;65498;50.916;4.698;2023-04-01T22:26:30;7.95;;;3.60;;
76606;SDS011;65498;50.916;4.698;2023-04-01T22:32:07;8.75;;;4.30;;
76606;SDS011;65498;50.916;4.698;2023-04-01T22:34:42;9.23;;;3.80;;
76606;SDS011;65498;50.916;4.698;2023-04-01T22:42:44;6.40;;;3.37;;
76606;SDS011;65498;50.916;4.698;2023-04-01T22:45:39;8.18;;;4.00;;
76606;SDS011;65498;50.916;4.698;2023-04-01T22:48:24;7.78;;;3.83;;
76606;SDS011;65498;50.916;4.698;2023-04-01T22:56:22;7.80;;;4.17;;
76606;SDS011;65498;50.916;4.698;2023-04-01T22:59:02;8.55;;;3.87;;
76606;SDS011;65498;50.916;4.698;2023-04-01T23:01:38;8.93;;;4.00;;
76606;SDS011;65498;50.916;4.698;2023-04-01T23:04:09;8.73;;;4.37;;
76606;SDS011;65498;50.916;4.698;2023-04-01T23:06:42;9.48;;;4.47;;
76606;SDS011;65498;50.916;4.698;2023-04-01T23:09:12;10.28;;;4.37;;
76606;SDS011;65498;50.916;4.698;2023-04-01T23:19:32;8.30;;;3.98;;
76606;SDS011;65498;50.916;4.698;2023-04-01T23:27:50;10.58;;;4.42;;
76606;SDS011;65498;50.916;4.698;2023-04-01T23:33:19;9.90;;;5.22;;
76606;SDS011;65498;50.916;4.698;2023-04-01T23:38:22;11.88;;;4.95;;
76606;SDS011;65498;50.916;4.698;2023-04-01T23:40:53;12.20;;;4.45;;
76606;SDS011;65498;50.916;4.698;2023-04-01T23:46:10;12.03;;;4.83;;
76606;SDS011;65498;50.916;4.698;2023-04-01T23:48:41;12.25;;;5.03;;
76606;SDS011;65498;50.916;4.698;2023-04-01T23:51:36;9.65;;;4.50;;
76606;SDS011;65498;50.916;4.698;2023-04-01T23:54:19;13.83;;;5.28;;
76606;SDS011;65498;50.916;4.698;2023-04-01T23:56:57;10.70;;;4.70;;
76606;SDS011;65498;50.916;4.698;2023-04-01T23:59:29;10.35;;;4.53;;
